Time;durP1;ratioP1;P1;durP2;ratioP2;P2;SDS_P1;SDS_P2;PMS_P1;PMS_P2;Temp;Humidity;BMP_temperature;BMP_pressure;BME280_temperature;BME280_humidity;BME280_pressure;Samples;Min_cycle;Max_cycle;Signal;HPM_P1;HPM_P2
2023/02/13 00:00:11;;;;;;;44.88;23.33;;;;;;;;;;4995935;28;20017;-73
2023/02/13 00:02:37;;;;;;;46.83;22.80;;;;;;;;;;5013527;28;20077;-72
2023/02/13 00:05:04;;;;;;;51.67;24.65;;;;;;;;;;5013704;28;20030;-71
2023/02/13 00:07:30;;;;;;;43.25;22.80;;;;;;;;;;5013061;28;20034;-72
2023/02/13 00:09:56;;;;;;;45.13;23.13;;;;;;;;;;5013513;28;20017;-73
2023/02/13 00:12:22;;;;;;;41.85;20.95;;;;;;;;;;5013623;28;20026;-73
2023/02/13 00:14:48;;;;;;;47.38;21.83;;;;;;;;;;5022205;28;20037;-74
2023/02/13 00:17:14;;;;;;;46.22;22.75;;;;;;;;;;5032667;28;20025;-74
2023/02/13 00:19:40;;;;;;;41.28;22.38;;;;;;;;;;5033480;28;20017;-72
2023/02/13 00:22:06;;;;;;;46.58;22.83;;;;;;;;;;5025590;28;20022;-73
2023/02/13 00:24:32;;;;;;;50.13;23.85;;;;;;;;;;5013360;28;20033;-72
2023/02/13 00:26:58;;;;;;;46.95;22.95;;;;;;;;;;4995338;28;20022;-73
2023/02/13 00:29:24;;;;;;;51.03;24.73;;;;;;;;;;5012667;28;20045;-74
2023/02/13 00:31:50;;;;;;;53.65;25.50;;;;;;;;;;5012676;28;20021;-73
2023/02/13 00:34:16;;;;;;;48.85;23.73;;;;;;;;;;5032696;28;20027;-72
2023/02/13 00:36:42;;;;;;;53.95;23.92;;;;;;;;;;5032756;28;20419;-73
2023/02/13 00:39:10;;;;;;;47.20;22.33;;;;;;;;;;5032018;28;20033;-72
2023/02/13 00:41:36;;;;;;;45.80;22.65;;;;;;;;;;5014801;28;20029;-70
2023/02/13 00:44:02;;;;;;;44.03;21.95;;;;;;;;;;5016543;28;20033;-73
2023/02/13 00:46:28;;;;;;;48.53;24.58;;;;;;;;;;5012896;28;20030;-72
2023/02/13 00:48:54;;;;;;;49.50;23.33;;;;;;;;;;5011598;28;20044;-72
2023/02/13 00:51:20;;;;;;;51.00;24.33;;;;;;;;;;5082900;22;20051;-72
2023/02/13 00:53:46;;;;;;;43.75;22.45;;;;;;;;;;5071892;28;20078;-72
2023/02/13 00:56:12;;;;;;;45.60;22.77;;;;;;;;;;5072872;28;20029;-72
2023/02/13 00:58:38;;;;;;;46.92;23.92;;;;;;;;;;5071379;28;20520;-72
2023/02/13 01:01:04;;;;;;;49.13;23.38;;;;;;;;;;5072459;28;20031;-72
2023/02/13 01:03:30;;;;;;;52.65;24.48;;;;;;;;;;5072323;28;20032;-73
2023/02/13 01:05:57;;;;;;;47.92;22.70;;;;;;;;;;5072220;28;20495;-72
2023/02/13 01:08:23;;;;;;;47.80;24.08;;;;;;;;;;5071619;28;20497;-72
2023/02/13 01:10:49;;;;;;;57.97;25.10;;;;;;;;;;5070790;28;20021;-72
2023/02/13 01:13:20;;;;;;;63.28;26.00;;;;;;;;;;5072141;28;20497;-72
2023/02/13 01:15:46;;;;;;;52.47;24.45;;;;;;;;;;5072144;28;20074;-72
2023/02/13 01:18:14;;;;;;;60.50;26.23;;;;;;;;;;5070057;28;20063;-71
2023/02/13 01:20:40;;;;;;;66.75;28.05;;;;;;;;;;5071590;28;20016;-72
2023/02/13 01:23:06;;;;;;;68.88;27.55;;;;;;;;;;5072063;28;20024;-72
2023/02/13 01:25:32;;;;;;;60.67;25.83;;;;;;;;;;5071743;28;20202;-72
2023/02/13 01:27:58;;;;;;;59.22;26.95;;;;;;;;;;5071081;28;20103;-71
2023/02/13 01:30:24;;;;;;;61.35;28.23;;;;;;;;;;5072194;28;20501;-72
2023/02/13 01:32:50;;;;;;;60.47;25.60;;;;;;;;;;5071517;28;20108;-72
2023/02/13 01:35:16;;;;;;;62.10;27.27;;;;;;;;;;5071540;28;20021;-72
2023/02/13 01:37:42;;;;;;;67.32;28.90;;;;;;;;;;5071058;28;20024;-72
2023/02/13 01:40:11;;;;;;;68.72;29.35;;;;;;;;;;5071631;28;20031;-71
2023/02/13 01:42:37;;;;;;;62.30;29.10;;;;;;;;;;5071392;28;20028;-72
2023/02/13 01:45:03;;;;;;;62.03;29.15;;;;;;;;;;5070664;28;20027;-71
2023/02/13 01:47:36;;;;;;;52.67;27.83;;;;;;;;;;5070639;28;20020;-72
2023/02/13 01:50:08;;;;;;;55.05;27.77;;;;;;;;;;5071202;28;20025;-72
2023/02/13 01:52:35;;;;;;;53.97;27.35;;;;;;;;;;5071404;28;20029;-72
2023/02/13 01:55:01;;;;;;;58.42;28.60;;;;;;;;;;5070229;28;20067;-73
2023/02/13 01:57:28;;;;;;;61.78;27.83;;;;;;;;;;5069164;28;20051;-73
2023/02/13 02:00:00;;;;;;;64.43;30.15;;;;;;;;;;5071247;28;20108;-73
2023/02/13 02:02:27;;;;;;;57.70;27.80;;;;;;;;;;5070935;28;20385;-73
2023/02/13 02:04:53;;;;;;;56.65;27.92;;;;;;;;;;5070941;28;20086;-73
2023/02/13 02:07:24;;;;;;;54.88;25.83;;;;;;;;;;5070351;28;20040;-73
2023/02/13 02:09:51;;;;;;;60.08;26.15;;;;;;;;;;5086681;28;20017;-74
2023/02/13 02:12:22;;;;;;;61.20;29.02;;;;;;;;;;5071009;28;20429;-74
2023/02/13 02:14:49;;;;;;;54.23;27.37;;;;;;;;;;5071116;28;20036;-73
2023/02/13 02:17:15;;;;;;;51.17;25.67;;;;;;;;;;5070206;28;20337;-73
2023/02/13 02:19:47;;;;;;;54.92;27.55;;;;;;;;;;5071057;28;20149;-73
2023/02/13 02:22:13;;;;;;;48.17;25.23;;;;;;;;;;5070953;28;20103;-73
2023/02/13 02:24:51;;;;;;;51.10;27.08;;;;;;;;;;5086176;28;20036;-74
2023/02/13 02:27:29;;;;;;;51.45;26.77;;;;;;;;;;5070093;28;20441;-74
2023/02/13 02:30:07;;;;;;;50.33;27.05;;;;;;;;;;5086283;28;20039;-73
2023/02/13 02:32:41;;;;;;;54.00;27.73;;;;;;;;;;5070781;28;20451;-74
2023/02/13 02:35:26;;;;;;;50.78;26.48;;;;;;;;;;5069479;28;20401;-72
2023/02/13 02:37:58;;;;;;;51.83;26.92;;;;;;;;;;5068601;28;20111;-73
2023/02/13 02:40:44;;;;;;;49.92;26.95;;;;;;;;;;5070695;28;20028;-73
2023/02/13 02:43:10;;;;;;;54.17;27.58;;;;;;;;;;5070247;28;20051;-75
2023/02/13 02:45:48;;;;;;;50.45;27.73;;;;;;;;;;5070677;28;20016;-74
2023/02/13 02:51:24;;;;;;;49.63;27.58;;;;;;;;;;5070670;28;20135;-72
2023/02/13 02:56:56;;;;;;;51.95;28.52;;;;;;;;;;5070351;28;20058;-72
2023/02/13 03:07:39;;;;;;;54.15;27.40;;;;;;;;;;5070099;28;20078;-71
2023/02/13 03:13:22;;;;;;;53.55;29.38;;;;;;;;;;5070362;28;20619;-72
2023/02/13 03:24:25;;;;;;;55.00;28.05;;;;;;;;;;5070585;28;20513;-71
2023/02/13 03:26:51;;;;;;;;;;;;;;;;;;5070642;28;20032;-72
2023/02/13 03:32:17;;;;;;;49.00;26.65;;;;;;;;;;5069999;28;20105;-72
2023/02/13 03:37:54;;;;;;;46.65;25.85;;;;;;;;;;5069602;28;20505;-73
2023/02/13 03:43:45;;;;;;;45.80;25.65;;;;;;;;;;5027924;28;20112;-72
2023/02/13 03:46:12;;;;;;;44.92;25.08;;;;;;;;;;5068612;28;20115;-72
2023/02/13 03:51:26;;;;;;;41.60;23.95;;;;;;;;;;5070103;28;20040;-71
2023/02/13 03:53:54;;;;;;;50.97;27.33;;;;;;;;;;5070371;28;20016;-70
2023/02/13 03:59:14;;;;;;;50.78;26.98;;;;;;;;;;5069509;28;20155;-72
2023/02/13 04:01:43;;;;;;;56.05;26.85;;;;;;;;;;5069659;28;20033;-73
2023/02/13 04:04:24;;;;;;;53.80;26.20;;;;;;;;;;5070044;28;20031;-72
2023/02/13 04:06:56;;;;;;;52.45;27.80;;;;;;;;;;5069623;28;20017;-73
2023/02/13 04:09:24;;;;;;;47.47;27.33;;;;;;;;;;5072534;28;20028;-72
2023/02/13 04:11:56;;;;;;;47.88;26.40;;;;;;;;;;5073385;28;20467;-73
2023/02/13 04:14:22;;;;;;;53.72;28.40;;;;;;;;;;5073614;28;20040;-72
2023/02/13 04:16:54;;;;;;;42.83;24.95;;;;;;;;;;5073037;28;20032;-73
2023/02/13 04:19:20;;;;;;;49.42;27.23;;;;;;;;;;5072289;28;20082;-72
2023/02/13 04:21:49;;;;;;;56.72;27.83;;;;;;;;;;5073215;28;20024;-73
2023/02/13 04:24:15;;;;;;;57.83;29.13;;;;;;;;;;5072821;28;20059;-73
2023/02/13 04:26:42;;;;;;;51.78;26.02;;;;;;;;;;5072841;28;20048;-72
2023/02/13 04:29:08;;;;;;;49.22;27.33;;;;;;;;;;5087858;28;20367;-72
2023/02/13 04:31:34;;;;;;;54.15;29.58;;;;;;;;;;5072668;28;20383;-71
2023/02/13 04:34:00;;;;;;;53.20;27.73;;;;;;;;;;5072948;28;20025;-74
2023/02/13 04:36:26;;;;;;;48.83;27.77;;;;;;;;;;5072598;28;20028;-73
2023/02/13 04:38:52;;;;;;;53.20;28.25;;;;;;;;;;5071330;28;20551;-73
2023/02/13 04:41:19;;;;;;;52.28;29.20;;;;;;;;;;5072636;28;20028;-72
2023/02/13 04:43:45;;;;;;;50.50;27.58;;;;;;;;;;5072468;28;20577;-72
2023/02/13 04:46:11;;;;;;;48.97;26.58;;;;;;;;;;5072782;28;20382;-73
2023/02/13 04:48:37;;;;;;;46.72;24.20;;;;;;;;;;5080435;28;20046;-73
2023/02/13 04:51:03;;;;;;;50.47;27.35;;;;;;;;;;5086077;28;20028;-73
2023/02/13 04:53:29;;;;;;;54.22;28.88;;;;;;;;;;5084794;28;20028;-73
2023/02/13 04:55:55;;;;;;;57.92;28.63;;;;;;;;;;5077140;28;20029;-73
2023/02/13 04:58:21;;;;;;;65.03;33.05;;;;;;;;;;5071610;28;20023;-70
2023/02/13 05:00:47;;;;;;;49.80;27.92;;;;;;;;;;5071719;28;20052;-73
2023/02/13 05:03:13;;;;;;;57.08;28.83;;;;;;;;;;5072107;28;20017;-73
2023/02/13 05:05:39;;;;;;;56.13;28.15;;;;;;;;;;5072004;28;20061;-73
2023/02/13 05:08:08;;;;;;;54.53;28.02;;;;;;;;;;5071257;28;20081;-73
2023/02/13 05:10:34;;;;;;;58.65;28.60;;;;;;;;;;5072056;28;20078;-73
2023/02/13 05:13:00;;;;;;;56.15;27.90;;;;;;;;;;5072497;28;20423;-72
2023/02/13 05:15:26;;;;;;;45.42;25.65;;;;;;;;;;5071798;28;20020;-73
2023/02/13 05:17:52;;;;;;;50.65;27.02;;;;;;;;;;5071466;28;20130;-70
2023/02/13 05:20:18;;;;;;;47.00;25.23;;;;;;;;;;5071625;28;20364;-73
2023/02/13 05:25:30;;;;;;;45.53;24.50;;;;;;;;;;5071820;28;20124;-72
2023/02/13 05:27:56;;;;;;;47.70;23.58;;;;;;;;;;5070854;28;20046;-73
2023/02/13 05:30:22;;;;;;;43.90;24.25;;;;;;;;;;5071892;28;20027;-73
2023/02/13 05:32:50;;;;;;;46.63;24.98;;;;;;;;;;5071054;28;20549;-73
2023/02/13 05:35:16;;;;;;;41.90;24.63;;;;;;;;;;5071468;28;20029;-72
2023/02/13 05:37:42;;;;;;;41.67;23.67;;;;;;;;;;5066811;28;20149;-72
2023/02/13 05:40:09;;;;;;;42.70;22.98;;;;;;;;;;5071077;28;20016;-73
2023/02/13 05:42:35;;;;;;;44.53;23.65;;;;;;;;;;5066937;28;20036;-72
2023/02/13 05:45:01;;;;;;;41.10;23.08;;;;;;;;;;5071713;28;20020;-73
2023/02/13 05:47:27;;;;;;;45.45;24.95;;;;;;;;;;5078156;28;20506;-72
2023/02/13 05:49:53;;;;;;;38.63;22.88;;;;;;;;;;5071264;28;20099;-73
2023/02/13 05:52:19;;;;;;;43.40;23.33;;;;;;;;;;5071690;28;20025;-73
2023/02/13 05:54:45;;;;;;;41.35;23.00;;;;;;;;;;5071402;28;20037;-73
2023/02/13 05:57:11;;;;;;;41.17;25.00;;;;;;;;;;5070900;28;20016;-72
2023/02/13 05:59:37;;;;;;;42.20;25.35;;;;;;;;;;5071281;28;20057;-74
2023/02/13 06:02:03;;;;;;;41.35;25.13;;;;;;;;;;5071092;28;20012;-73
2023/02/13 06:04:29;;;;;;;42.67;24.83;;;;;;;;;;5086886;28;20059;-73
2023/02/13 06:06:55;;;;;;;40.03;23.88;;;;;;;;;;5071035;28;20017;-73
2023/02/13 06:09:21;;;;;;;41.03;22.48;;;;;;;;;;5070339;28;20023;-73
2023/02/13 06:11:47;;;;;;;40.47;22.58;;;;;;;;;;5086629;28;20539;-72
2023/02/13 06:14:13;;;;;;;49.15;24.23;;;;;;;;;;5071392;28;20025;-72
2023/02/13 06:16:39;;;;;;;42.25;23.63;;;;;;;;;;5071374;28;20031;-71
2023/02/13 06:19:05;;;;;;;36.80;21.58;;;;;;;;;;5070227;28;20028;-72
2023/02/13 06:21:36;;;;;;;44.60;23.23;;;;;;;;;;5069797;28;20021;-72
2023/02/13 06:24:06;;;;;;;43.70;22.30;;;;;;;;;;5071354;28;20028;-74
2023/02/13 06:26:32;;;;;;;40.03;21.98;;;;;;;;;;5069888;28;20115;-72
2023/02/13 06:28:58;;;;;;;43.35;23.40;;;;;;;;;;5070264;28;20052;-72
2023/02/13 06:31:24;;;;;;;44.08;23.58;;;;;;;;;;5070337;28;20379;-73
2023/02/13 06:33:50;;;;;;;45.55;23.70;;;;;;;;;;5070379;28;20031;-72
2023/02/13 06:36:16;;;;;;;49.35;23.45;;;;;;;;;;5070865;28;20103;-72
2023/02/13 06:38:42;;;;;;;45.63;24.27;;;;;;;;;;5069740;28;20021;-72
2023/02/13 06:41:08;;;;;;;48.05;23.92;;;;;;;;;;5070621;28;20118;-73
2023/02/13 06:43:34;;;;;;;48.40;22.90;;;;;;;;;;5086213;28;20024;-73
2023/02/13 06:46:04;;;;;;;40.97;22.30;;;;;;;;;;5070513;28;20078;-73
2023/02/13 06:48:29;;;;;;;42.30;21.33;;;;;;;;;;5069748;28;20025;-73
2023/02/13 06:50:56;;;;;;;48.85;23.80;;;;;;;;;;5084496;22;20068;-71
2023/02/13 06:53:23;;;;;;;43.28;22.88;;;;;;;;;;5049955;28;20075;-71
2023/02/13 06:55:50;;;;;;;44.42;24.15;;;;;;;;;;5050308;28;20029;-73
2023/02/13 06:58:16;;;;;;;41.80;20.77;;;;;;;;;;5043902;28;20029;-71
2023/02/13 07:00:42;;;;;;;49.60;24.05;;;;;;;;;;5049808;28;20035;-72
2023/02/13 07:03:09;;;;;;;46.33;22.63;;;;;;;;;;5032153;28;20032;-72
2023/02/13 07:05:38;;;;;;;54.88;24.13;;;;;;;;;;5033392;28;20025;-72
2023/02/13 07:08:04;;;;;;;55.60;27.05;;;;;;;;;;5031998;28;20083;-73
2023/02/13 07:10:30;;;;;;;57.35;26.45;;;;;;;;;;5049572;28;20029;-73
2023/02/13 07:12:56;;;;;;;57.20;26.05;;;;;;;;;;5031733;28;20463;-72
2023/02/13 07:15:22;;;;;;;51.72;25.65;;;;;;;;;;5049167;28;20412;-72
2023/02/13 07:17:54;;;;;;;57.72;25.45;;;;;;;;;;5049154;28;20021;-72
2023/02/13 07:20:20;;;;;;;51.28;26.27;;;;;;;;;;5048898;28;20025;-72
2023/02/13 07:22:49;;;;;;;56.03;24.35;;;;;;;;;;5050729;28;20025;-73
2023/02/13 07:25:16;;;;;;;46.58;23.13;;;;;;;;;;5051298;28;20028;-73
2023/02/13 07:27:42;;;;;;;47.20;21.90;;;;;;;;;;5051744;28;20021;-72
2023/02/13 07:30:08;;;;;;;47.83;24.17;;;;;;;;;;5051808;28;20017;-74
2023/02/13 07:32:34;;;;;;;54.70;24.48;;;;;;;;;;5050458;28;20580;-73
2023/02/13 07:35:00;;;;;;;51.20;24.23;;;;;;;;;;5050011;28;20061;-73
2023/02/13 07:37:30;;;;;;;51.15;24.77;;;;;;;;;;5048834;28;20029;-72
2023/02/13 07:39:56;;;;;;;50.00;23.90;;;;;;;;;;5049409;28;20045;-72
2023/02/13 07:42:22;;;;;;;50.97;24.05;;;;;;;;;;5050564;28;20029;-72
2023/02/13 07:44:49;;;;;;;54.67;25.02;;;;;;;;;;5053413;28;20219;-74
2023/02/13 07:47:15;;;;;;;48.75;23.15;;;;;;;;;;5052674;28;20487;-73
2023/02/13 07:49:41;;;;;;;47.47;24.58;;;;;;;;;;5053435;28;20490;-71
2023/02/13 07:52:07;;;;;;;46.20;23.70;;;;;;;;;;5053602;28;20501;-69
2023/02/13 07:54:33;;;;;;;49.60;24.15;;;;;;;;;;5052171;28;20053;-71
2023/02/13 07:56:59;;;;;;;50.22;25.95;;;;;;;;;;5052876;28;20564;-71
2023/02/13 07:59:25;;;;;;;51.30;25.00;;;;;;;;;;5053066;28;20029;-72
2023/02/13 08:01:51;;;;;;;49.13;24.73;;;;;;;;;;5052995;28;20568;-75
2023/02/13 08:04:17;;;;;;;48.60;24.08;;;;;;;;;;5053274;28;20100;-75
2023/02/13 08:06:43;;;;;;;50.38;24.25;;;;;;;;;;5051973;28;20051;-70
2023/02/13 08:12:01;;;;;;;41.33;22.52;;;;;;;;;;5053094;28;20091;-71
2023/02/13 08:14:27;;;;;;;43.25;22.45;;;;;;;;;;5053150;28;20049;-71
2023/02/13 08:16:54;;;;;;;42.85;23.15;;;;;;;;;;5053089;28;20033;-72
2023/02/13 08:19:20;;;;;;;41.85;21.00;;;;;;;;;;5052132;28;20029;-70
2023/02/13 08:21:46;;;;;;;42.90;22.25;;;;;;;;;;5052659;28;20398;-71
2023/02/13 08:24:13;;;;;;;38.80;21.05;;;;;;;;;;5052863;28;20021;-72
2023/02/13 08:26:39;;;;;;;42.88;22.58;;;;;;;;;;5052962;28;20509;-71
2023/02/13 08:29:05;;;;;;;40.15;21.60;;;;;;;;;;5051895;28;20021;-72
2023/02/13 08:31:31;;;;;;;37.55;21.52;;;;;;;;;;5052749;28;20426;-71
2023/02/13 08:33:58;;;;;;;38.25;21.33;;;;;;;;;;5052419;28;20032;-72
2023/02/13 08:36:24;;;;;;;42.72;21.42;;;;;;;;;;5052659;28;20025;-71
2023/02/13 08:38:50;;;;;;;37.50;19.95;;;;;;;;;;5051476;28;20108;-72
2023/02/13 08:41:17;;;;;;;37.58;18.65;;;;;;;;;;5034565;28;20028;-72
2023/02/13 08:43:43;;;;;;;36.10;18.83;;;;;;;;;;5052593;28;20013;-72
2023/02/13 08:46:09;;;;;;;35.22;19.65;;;;;;;;;;5052394;28;20024;-73
2023/02/13 08:48:35;;;;;;;36.55;19.70;;;;;;;;;;5052346;28;20021;-72
2023/02/13 08:51:05;;;;;;;37.00;20.60;;;;;;;;;;5052220;28;20043;-72
2023/02/13 08:53:33;;;;;;;34.22;18.23;;;;;;;;;;5050398;28;20017;-72
2023/02/13 08:55:59;;;;;;;36.20;19.50;;;;;;;;;;5052009;28;20120;-71
2023/02/13 08:58:25;;;;;;;33.30;18.52;;;;;;;;;;5050104;28;20525;-73
2023/02/13 09:00:51;;;;;;;31.67;17.20;;;;;;;;;;5052197;28;20113;-73
2023/02/13 09:03:17;;;;;;;33.65;18.15;;;;;;;;;;5050717;28;20033;-71
2023/02/13 09:05:43;;;;;;;31.65;16.73;;;;;;;;;;5051795;28;20052;-71
2023/02/13 09:08:12;;;;;;;31.98;18.73;;;;;;;;;;5051470;28;20026;-72
2023/02/13 09:10:38;;;;;;;30.73;18.45;;;;;;;;;;5051860;28;20120;-71
2023/02/13 09:13:05;;;;;;;35.47;19.00;;;;;;;;;;5052168;28;20032;-72
2023/02/13 09:15:31;;;;;;;40.45;19.80;;;;;;;;;;5033789;28;20033;-72
2023/02/13 09:17:57;;;;;;;35.33;18.42;;;;;;;;;;5050720;28;20035;-73
2023/02/13 09:20:23;;;;;;;34.40;19.13;;;;;;;;;;5033856;28;20436;-71
2023/02/13 09:22:49;;;;;;;39.40;19.83;;;;;;;;;;5052010;28;20036;-72
2023/02/13 09:25:15;;;;;;;32.78;18.63;;;;;;;;;;5033582;28;20032;-72
2023/02/13 09:27:41;;;;;;;33.47;18.35;;;;;;;;;;5050943;28;20039;-74
2023/02/13 09:30:09;;;;;;;33.78;17.90;;;;;;;;;;5051730;28;20032;-73
2023/02/13 09:32:36;;;;;;;38.55;19.30;;;;;;;;;;5051545;28;20040;-71
2023/02/13 09:35:02;;;;;;;38.90;19.58;;;;;;;;;;5052020;28;20036;-72
2023/02/13 09:37:28;;;;;;;34.85;19.05;;;;;;;;;;5048829;28;20025;-73
2023/02/13 09:39:54;;;;;;;33.75;19.42;;;;;;;;;;5049929;28;20387;-73
2023/02/13 09:42:24;;;;;;;33.03;19.30;;;;;;;;;;5051714;28;20451;-73
2023/02/13 09:44:51;;;;;;;35.92;19.48;;;;;;;;;;5051459;28;20021;-74
2023/02/13 09:47:23;;;;;;;31.08;18.83;;;;;;;;;;5050595;28;20029;-71
2023/02/13 09:49:51;;;;;;;30.85;18.05;;;;;;;;;;5051332;28;20456;-74
2023/02/13 09:52:18;;;;;;;33.80;19.02;;;;;;;;;;5051442;28;20394;-73
2023/02/13 09:54:44;;;;;;;36.85;20.83;;;;;;;;;;5051303;28;20021;-71
2023/02/13 09:57:16;;;;;;;37.22;22.27;;;;;;;;;;5050338;28;20021;-72
2023/02/13 09:59:42;;;;;;;37.85;21.65;;;;;;;;;;5050723;28;20017;-72
2023/02/13 10:02:34;;;;;;;32.08;20.60;;;;;;;;;;5050914;28;20471;-71
2023/02/13 10:05:06;;;;;;;32.92;20.02;;;;;;;;;;5050543;28;20029;-72
2023/02/13 10:07:35;;;;;;;33.03;19.27;;;;;;;;;;5048798;28;20550;-72
2023/02/13 10:10:07;;;;;;;28.70;18.42;;;;;;;;;;5049302;28;20051;-72
2023/02/13 10:12:36;;;;;;;29.40;17.45;;;;;;;;;;5051141;28;20031;-71
2023/02/13 10:15:11;;;;;;;30.42;17.25;;;;;;;;;;5050815;28;20078;-71
2023/02/13 10:17:39;;;;;;;30.02;17.90;;;;;;;;;;5049987;28;20021;-72
2023/02/13 10:20:29;;;;;;;25.95;16.73;;;;;;;;;;5045159;28;20059;-71
2023/02/13 10:23:18;;;;;;;28.15;17.30;;;;;;;;;;5040486;28;20133;-72
2023/02/13 10:25:47;;;;;;;30.08;18.50;;;;;;;;;;5039754;28;20056;-70
2023/02/13 10:28:16;;;;;;;22.80;16.15;;;;;;;;;;5050493;28;20036;-71
2023/02/13 10:30:48;;;;;;;26.65;15.68;;;;;;;;;;5033178;28;20398;-71
2023/02/13 10:33:17;;;;;;;26.08;15.73;;;;;;;;;;5050585;28;20025;-71
2023/02/13 10:35:53;;;;;;;25.30;16.25;;;;;;;;;;5050420;28;20021;-71
2023/02/13 10:38:21;;;;;;;21.10;15.13;;;;;;;;;;5049953;28;20029;-72
2023/02/13 10:40:59;;;;;;;19.50;13.95;;;;;;;;;;5050689;28;20021;-71
2023/02/13 10:43:27;;;;;;;18.50;12.68;;;;;;;;;;5050334;28;20091;-72
2023/02/13 10:45:57;;;;;;;17.63;11.95;;;;;;;;;;5032523;28;20020;-72
2023/02/13 10:48:22;;;;;;;17.63;11.25;;;;;;;;;;5049949;28;20134;-71
2023/02/13 10:51:08;;;;;;;17.50;11.15;;;;;;;;;;5050454;28;20072;-72
2023/02/13 10:53:40;;;;;;;19.33;12.57;;;;;;;;;;5049216;28;20048;-72
2023/02/13 10:56:23;;;;;;;19.90;12.65;;;;;;;;;;5048050;28;20029;-72
2023/02/13 10:58:58;;;;;;;17.15;11.77;;;;;;;;;;5048954;28;20021;-72
2023/02/13 11:01:33;;;;;;;17.83;12.57;;;;;;;;;;5048820;28;20063;-73
2023/02/13 11:04:07;;;;;;;18.48;11.68;;;;;;;;;;5050095;28;20032;-72
2023/02/13 11:06:37;;;;;;;15.25;11.38;;;;;;;;;;5050365;28;20083;-72
2023/02/13 11:09:05;;;;;;;17.13;12.90;;;;;;;;;;5049768;28;20328;-72
2023/02/13 11:11:33;;;;;;;15.60;11.05;;;;;;;;;;5050605;28;20017;-72
2023/02/13 11:14:29;;;;;;;18.35;12.73;;;;;;;;;;5032359;28;20095;-72
2023/02/13 11:16:57;;;;;;;15.32;11.45;;;;;;;;;;5034968;28;20041;-72
2023/02/13 11:19:26;;;;;;;15.48;11.27;;;;;;;;;;5055192;28;20035;-71
2023/02/13 11:21:58;;;;;;;15.50;10.82;;;;;;;;;;5037799;28;20482;-71
2023/02/13 11:24:26;;;;;;;15.95;11.05;;;;;;;;;;5054793;28;20111;-71
2023/02/13 11:27:00;;;;;;;14.43;10.00;;;;;;;;;;5036477;28;20108;-71
2023/02/13 11:29:28;;;;;;;13.40;10.05;;;;;;;;;;5035701;28;20020;-72
2023/02/13 11:32:04;;;;;;;12.98;9.88;;;;;;;;;;5035891;28;20029;-72
2023/02/13 11:34:30;;;;;;;13.10;9.73;;;;;;;;;;5036004;28;20029;-71
2023/02/13 11:37:12;;;;;;;14.23;10.30;;;;;;;;;;5053675;28;20033;-71
2023/02/13 11:39:40;;;;;;;12.18;8.70;;;;;;;;;;5048095;28;20481;-71
2023/02/13 11:42:16;;;;;;;11.15;8.57;;;;;;;;;;5041740;28;20112;-72
2023/02/13 11:44:43;;;;;;;8.82;7.32;;;;;;;;;;5048407;28;20100;-71
2023/02/13 11:47:10;;;;;;;9.55;7.25;;;;;;;;;;5053162;28;20543;-71
2023/02/13 11:49:40;;;;;;;8.82;6.90;;;;;;;;;;5051403;28;20025;-72
2023/02/13 11:52:07;;;;;;;7.72;6.43;;;;;;;;;;5051876;28;20025;-72
2023/02/13 11:54:43;;;;;;;7.78;5.72;;;;;;;;;;5052473;28;20284;-72
2023/02/13 11:57:20;;;;;;;7.20;5.53;;;;;;;;;;5052538;28;20033;-73
2023/02/13 11:59:47;;;;;;;8.52;5.57;;;;;;;;;;5035948;28;20094;-69
2023/02/13 12:02:15;;;;;;;5.32;4.53;;;;;;;;;;5053300;28;20029;-71
2023/02/13 12:04:41;;;;;;;5.38;4.88;;;;;;;;;;5035408;28;20454;-72
2023/02/13 12:07:21;;;;;;;5.55;5.00;;;;;;;;;;5052498;28;20475;-69
2023/02/13 12:09:53;;;;;;;5.20;4.40;;;;;;;;;;5053859;28;20096;-71
2023/02/13 12:12:22;;;;;;;6.18;5.38;;;;;;;;;;5053221;28;20499;-71
2023/02/13 12:14:49;;;;;;;8.05;5.47;;;;;;;;;;5052883;28;20491;-71
2023/02/13 12:17:22;;;;;;;6.57;5.90;;;;;;;;;;5052437;28;20037;-73
2023/02/13 12:19:49;;;;;;;7.25;5.40;;;;;;;;;;5034896;28;20539;-70
2023/02/13 12:22:18;;;;;;;6.75;5.65;;;;;;;;;;5052998;28;20067;-71
2023/02/13 12:24:56;;;;;;;7.65;5.47;;;;;;;;;;5052442;28;20036;-72
2023/02/13 12:27:35;;;;;;;5.75;5.15;;;;;;;;;;5052264;28;20101;-71
2023/02/13 12:30:20;;;;;;;6.53;4.75;;;;;;;;;;5034425;28;20017;-72
2023/02/13 12:33:05;;;;;;;7.15;5.35;;;;;;;;;;5052426;28;20024;-70
2023/02/13 12:35:31;;;;;;;11.68;5.95;;;;;;;;;;5034140;28;20033;-71
2023/02/13 12:37:57;;;;;;;6.75;5.80;;;;;;;;;;5052361;28;20091;-70
2023/02/13 12:40:50;;;;;;;5.90;5.30;;;;;;;;;;5052423;28;20032;-72
2023/02/13 12:43:25;;;;;;;6.55;5.68;;;;;;;;;;5052983;28;20043;-72
2023/02/13 12:46:09;;;;;;;5.97;5.32;;;;;;;;;;5034359;28;20028;-72
2023/02/13 12:48:35;;;;;;;6.97;5.47;;;;;;;;;;5050735;28;20491;-71
2023/02/13 12:51:01;;;;;;;6.60;5.97;;;;;;;;;;5080046;22;20033;-74
2023/02/13 12:53:45;;;;;;;7.57;5.93;;;;;;;;;;5073435;28;20027;-73
2023/02/13 12:56:31;;;;;;;8.02;5.78;;;;;;;;;;5072872;28;20048;-73
2023/02/13 12:59:03;;;;;;;7.88;5.43;;;;;;;;;;5056597;28;20036;-74
2023/02/13 13:01:48;;;;;;;7.60;5.78;;;;;;;;;;5072030;28;20372;-73
2023/02/13 13:04:23;;;;;;;8.27;6.28;;;;;;;;;;5071776;28;20078;-74
2023/02/13 13:06:51;;;;;;;8.93;6.18;;;;;;;;;;5071481;28;20062;-73
2023/02/13 13:09:37;;;;;;;7.82;6.53;;;;;;;;;;5070584;28;20084;-74
2023/02/13 13:12:06;;;;;;;10.23;7.20;;;;;;;;;;5070951;28;20020;-75
2023/02/13 13:14:36;;;;;;;8.30;6.82;;;;;;;;;;5071675;28;20051;-72
2023/02/13 13:17:08;;;;;;;8.48;6.75;;;;;;;;;;5072418;28;20161;-73
2023/02/13 13:19:34;;;;;;;11.20;7.45;;;;;;;;;;5071421;28;20028;-73
2023/02/13 13:22:04;;;;;;;7.78;6.63;;;;;;;;;;5072900;28;20032;-73
2023/02/13 13:24:50;;;;;;;10.85;7.15;;;;;;;;;;5072862;28;20020;-73
2023/02/13 13:27:27;;;;;;;10.38;7.15;;;;;;;;;;5041213;28;20035;-73
2023/02/13 13:29:58;;;;;;;9.80;7.00;;;;;;;;;;5072796;28;20021;-73
2023/02/13 13:32:25;;;;;;;9.20;7.68;;;;;;;;;;5072647;28;20032;-74
2023/02/13 13:34:52;;;;;;;16.95;7.82;;;;;;;;;;5072636;28;20051;-73
2023/02/13 13:37:34;;;;;;;10.98;8.20;;;;;;;;;;5070309;28;20064;-74
2023/02/13 13:40:00;;;;;;;13.27;8.60;;;;;;;;;;5071462;28;20092;-74
2023/02/13 13:42:26;;;;;;;10.48;7.70;;;;;;;;;;5073115;28;20115;-71
2023/02/13 13:44:59;;;;;;;12.63;7.97;;;;;;;;;;5073195;28;20490;-74
2023/02/13 13:47:37;;;;;;;8.90;7.82;;;;;;;;;;5072898;28;20021;-73
2023/02/13 13:50:05;;;;;;;10.45;8.15;;;;;;;;;;5073523;28;20045;-72
2023/02/13 13:52:32;;;;;;;9.32;7.82;;;;;;;;;;5072591;28;20021;-73
2023/02/13 13:55:01;;;;;;;15.85;8.63;;;;;;;;;;5072924;28;20031;-73
2023/02/13 13:57:56;;;;;;;13.07;9.13;;;;;;;;;;5073010;28;20048;-74
2023/02/13 14:00:24;;;;;;;14.43;9.40;;;;;;;;;;5071169;28;20033;-72
2023/02/13 14:02:50;;;;;;;12.68;9.40;;;;;;;;;;5072938;28;20047;-73
2023/02/13 14:05:25;;;;;;;13.88;10.00;;;;;;;;;;5071910;28;20056;-73
2023/02/13 14:07:56;;;;;;;10.68;8.00;;;;;;;;;;5071311;28;20402;-72
2023/02/13 14:10:25;;;;;;;12.45;8.15;;;;;;;;;;5071656;28;20096;-73
2023/02/13 14:12:57;;;;;;;9.75;7.22;;;;;;;;;;5071711;28;20024;-74
2023/02/13 14:15:43;;;;;;;14.38;7.40;;;;;;;;;;5071740;28;20024;-70
2023/02/13 14:18:12;;;;;;;8.45;6.75;;;;;;;;;;5070850;28;20050;-73
2023/02/13 14:20:48;;;;;;;10.45;7.25;;;;;;;;;;5071917;28;20029;-73
2023/02/13 14:23:17;;;;;;;9.00;7.15;;;;;;;;;;5071536;28;20028;-73
2023/02/13 14:25:43;;;;;;;9.88;8.00;;;;;;;;;;5071186;28;20025;-71
2023/02/13 14:28:26;;;;;;;8.18;6.68;;;;;;;;;;5070824;28;20112;-74
2023/02/13 14:31:03;;;;;;;9.43;7.50;;;;;;;;;;5071241;28;20482;-74
2023/02/13 14:33:36;;;;;;;10.07;7.75;;;;;;;;;;5071531;28;20024;-75
2023/02/13 14:36:17;;;;;;;13.20;7.68;;;;;;;;;;5071370;28;20035;-71
2023/02/13 14:38:43;;;;;;;14.38;8.68;;;;;;;;;;5070420;28;20020;-73
2023/02/13 14:41:41;;;;;;;8.20;6.35;;;;;;;;;;5071536;28;20115;-73
2023/02/13 14:44:15;;;;;;;10.38;8.43;;;;;;;;;;5071387;28;20467;-75
2023/02/13 14:46:44;;;;;;;9.85;7.68;;;;;;;;;;5070022;28;20027;-72
2023/02/13 14:49:19;;;;;;;13.27;8.45;;;;;;;;;;5069158;28;20017;-73
2023/02/13 14:51:50;;;;;;;13.00;8.38;;;;;;;;;;5070517;28;20108;-72
2023/02/13 14:54:32;;;;;;;9.85;7.75;;;;;;;;;;5071174;28;20020;-73
2023/02/13 14:57:15;;;;;;;11.40;8.45;;;;;;;;;;5070996;28;20510;-72
2023/02/13 14:59:43;;;;;;;11.32;8.15;;;;;;;;;;5070799;28;20143;-74
2023/02/13 15:02:15;;;;;;;10.50;8.30;;;;;;;;;;5070897;28;20467;-73
2023/02/13 15:04:44;;;;;;;11.48;8.98;;;;;;;;;;5071225;28;20025;-73
2023/02/13 15:07:14;;;;;;;12.02;9.13;;;;;;;;;;5070108;28;20025;-73
2023/02/13 15:09:44;;;;;;;13.57;9.77;;;;;;;;;;5069668;28;20033;-73
2023/02/13 15:12:27;;;;;;;12.30;9.55;;;;;;;;;;5070787;28;20025;-74
2023/02/13 15:14:53;;;;;;;13.40;9.82;;;;;;;;;;5071035;28;20135;-73
2023/02/13 15:17:22;;;;;;;14.43;9.75;;;;;;;;;;5070634;28;20414;-72
2023/02/13 15:19:50;;;;;;;11.98;9.48;;;;;;;;;;5071092;28;20108;-74
2023/02/13 15:22:32;;;;;;;12.88;9.95;;;;;;;;;;5076675;28;20031;-74